createdAt,value
2019-04-07T00:00:32.595Z,10.66
2019-04-07T00:03:04.007Z,10.66
2019-04-07T00:05:36.278Z,10.64
2019-04-07T00:08:07.590Z,10.64
2019-04-07T00:10:39.059Z,10.63
2019-04-07T00:13:10.707Z,10.62
2019-04-07T00:15:42.044Z,10.62
2019-04-07T00:18:13.406Z,10.57
2019-04-07T00:20:44.804Z,10.54
2019-04-07T00:23:16.258Z,10.53
2019-04-07T00:25:47.984Z,10.52
2019-04-07T00:28:19.615Z,10.49
2019-04-07T00:30:51.390Z,10.46
2019-04-07T00:33:22.728Z,10.46
2019-04-07T00:35:54.110Z,10.46
2019-04-07T00:38:25.557Z,10.49
2019-04-07T00:40:57.756Z,10.49
2019-04-07T00:43:30.582Z,10.48
2019-04-07T00:46:02.405Z,10.47
2019-04-07T00:48:33.759Z,10.48
2019-04-07T00:51:06.633Z,10.46
2019-04-07T00:53:38.733Z,10.47
2019-04-07T00:56:10.664Z,10.41
2019-04-07T00:58:42.261Z,10.37
2019-04-07T01:01:15.259Z,10.38
2019-04-07T01:03:46.586Z,10.41
2019-04-07T01:06:19.030Z,10.41
2019-04-07T01:08:50.341Z,10.36
2019-04-07T01:11:23.120Z,10.25
2019-04-07T01:13:54.830Z,10.13
2019-04-07T01:16:27.365Z,10.04
2019-04-07T01:18:59.176Z,9.98
2019-04-07T01:21:31.292Z,10.02
2019-04-07T01:24:03.325Z,10.00
2019-04-07T01:26:35.099Z,9.95
2019-04-07T01:29:06.594Z,9.82
2019-04-07T01:31:41.317Z,9.73
2019-04-07T01:34:13.378Z,9.62
2019-04-07T01:36:45.445Z,9.56
2019-04-07T01:39:16.877Z,9.58
2019-04-07T01:41:56.248Z,9.58
2019-04-07T01:44:38.740Z,9.56
2019-04-07T01:47:21.055Z,9.58
2019-04-07T01:49:54.618Z,9.60
2019-04-07T01:52:30.327Z,9.60
2019-04-07T01:55:03.775Z,9.62
2019-04-07T01:57:47.713Z,9.64
2019-04-07T02:00:20.800Z,9.70
2019-04-07T02:02:56.750Z,9.59
2019-04-07T02:05:57.152Z,9.50
2019-04-07T02:08:34.068Z,9.41
2019-04-07T02:11:07.534Z,9.33
2019-04-07T02:13:40.569Z,9.23
2019-04-07T02:16:13.546Z,9.20
2019-04-07T02:18:46.603Z,9.21
2019-04-07T02:21:27.340Z,9.20
2019-04-07T02:24:10.249Z,9.22
2019-04-07T02:26:58.637Z,9.27
2019-04-07T02:29:34.667Z,9.37
2019-04-07T02:32:24.629Z,9.33
2019-04-07T02:35:07.566Z,9.25
2019-04-07T02:37:49.987Z,9.11
2019-04-07T02:40:39.504Z,9.03
2019-04-07T02:43:19.514Z,9.02
2019-04-07T02:45:56.624Z,9.02
2019-04-07T02:48:29.574Z,8.99
2019-04-07T02:51:18.416Z,8.92
2019-04-07T02:53:51.278Z,8.83
2019-04-07T02:56:27.963Z,8.76
2019-04-07T02:59:01.339Z,8.76
2019-04-07T03:01:35.087Z,8.76
2019-04-07T03:04:12.122Z,8.69
2019-04-07T03:06:48.271Z,8.53
2019-04-07T03:09:34.919Z,8.49
2019-04-07T03:12:10.812Z,8.52
2019-04-07T03:15:00.584Z,8.53
2019-04-07T03:17:33.895Z,8.52
2019-04-07T03:20:25.083Z,8.49
2019-04-07T03:23:13.233Z,8.45
2019-04-07T03:26:00.720Z,8.46
2019-04-07T03:28:39.913Z,8.50
2019-04-07T03:31:21.294Z,8.57
2019-04-07T03:34:09.752Z,8.56
2019-04-07T03:37:12.573Z,8.70
2019-04-07T03:39:35.790Z,8.67
2019-04-07T03:42:14.576Z,8.48
2019-04-07T03:44:54.553Z,8.37
2019-04-07T03:47:30.489Z,8.32
2019-04-07T03:50:10.436Z,8.28
2019-04-07T03:52:52.292Z,8.22
2019-04-07T03:55:37.027Z,8.21
2019-04-07T03:58:26.276Z,8.16
2019-04-07T04:01:06.656Z,8.13
2019-04-07T04:03:44.047Z,8.09
2019-04-07T04:06:34.206Z,8.06
2019-04-07T04:09:18.056Z,7.99
2019-04-07T04:12:07.619Z,7.98
2019-04-07T04:14:41.429Z,7.98
2019-04-07T04:17:13.006Z,8.01
2019-04-07T04:19:44.480Z,8.05
2019-04-07T04:22:15.861Z,8.08
2019-04-07T04:24:47.213Z,8.16
2019-04-07T04:27:18.610Z,8.21
2019-04-07T04:29:51.888Z,8.24
2019-04-07T04:32:23.660Z,8.16
2019-04-07T04:34:54.906Z,8.10
2019-04-07T04:37:37.704Z,8.07
2019-04-07T04:39:59.675Z,8.09
2019-04-07T04:42:31.287Z,8.08
2019-04-07T04:45:02.673Z,8.10
2019-04-07T04:47:34.435Z,8.12
2019-04-07T04:50:08.612Z,8.12
2019-04-07T04:52:41.060Z,8.11
2019-04-07T04:55:13.344Z,8.10
2019-04-07T04:57:44.573Z,8.11
2019-04-07T05:00:17.813Z,8.11
2019-04-07T05:02:50.044Z,8.09
2019-04-07T05:05:22.274Z,8.08
2019-04-07T05:08:00.733Z,8.06
2019-04-07T05:10:27.616Z,8.07
2019-04-07T05:12:59.079Z,8.11
2019-04-07T05:15:30.918Z,8.18
2019-04-07T05:18:02.238Z,8.21
2019-04-07T05:20:34.358Z,8.25
2019-04-07T05:23:05.884Z,8.26
2019-04-07T05:25:37.746Z,8.28
2019-04-07T05:28:09.958Z,8.29
2019-04-07T05:30:41.510Z,8.32
2019-04-07T05:33:13.986Z,8.41
2019-04-07T05:35:45.618Z,8.43
2019-04-07T05:38:16.962Z,8.42
2019-04-07T05:40:48.242Z,8.44
2019-04-07T05:43:20.593Z,8.47
2019-04-07T05:45:51.823Z,8.59
2019-04-07T05:48:23.733Z,8.64
2019-04-07T05:50:56.148Z,8.67
2019-04-07T05:53:29.901Z,8.72
2019-04-07T05:56:02.277Z,8.73
2019-04-07T05:58:37.544Z,8.75
2019-04-07T06:01:07.471Z,8.79
2019-04-07T06:03:43.683Z,8.81
2019-04-07T06:06:15.830Z,8.83
2019-04-07T06:08:48.596Z,8.86
2019-04-07T06:11:20.443Z,8.95
2019-04-07T06:13:52.006Z,8.96
2019-04-07T06:16:23.736Z,8.97
2019-04-07T06:18:55.517Z,8.97
2019-04-07T06:21:27.791Z,8.92
2019-04-07T06:24:00.632Z,8.93
2019-04-07T06:26:33.266Z,8.95
2019-04-07T06:29:05.028Z,9.01
2019-04-07T06:31:38.112Z,9.00
2019-04-07T06:34:11.312Z,9.01
2019-04-07T06:36:43.094Z,8.98
2019-04-07T06:39:17.141Z,8.94
2019-04-07T06:41:49.164Z,8.94
2019-04-07T06:44:22.399Z,9.01
2019-04-07T06:46:57.934Z,9.06
2019-04-07T06:49:35.580Z,9.17
2019-04-07T06:52:24.867Z,9.29
2019-04-07T06:54:59.054Z,9.35
2019-04-07T06:57:36.740Z,9.38
2019-04-07T07:00:28.124Z,9.45
2019-04-07T07:03:04.286Z,9.56
2019-04-07T07:05:41.126Z,9.57
2019-04-07T07:08:42.240Z,9.61
2019-04-07T07:11:05.814Z,9.70
2019-04-07T07:13:52.141Z,9.73
2019-04-07T07:16:28.695Z,9.75
2019-04-07T07:19:18.478Z,9.81
2019-04-07T07:21:52.241Z,9.87
2019-04-07T07:24:26.361Z,9.92
2019-04-07T07:26:59.070Z,9.98
2019-04-07T07:29:30.915Z,10.05
2019-04-07T07:32:03.889Z,10.10
2019-04-07T07:34:39.885Z,10.11
2019-04-07T07:37:09.625Z,10.16
2019-04-07T07:39:44.902Z,10.16
2019-04-07T07:42:15.866Z,10.13
2019-04-07T07:44:47.289Z,10.25
2019-04-07T07:47:22.616Z,10.53
2019-04-07T07:49:53.923Z,10.68
2019-04-07T07:52:25.488Z,10.90
2019-04-07T07:54:59.806Z,11.03
2019-04-07T07:57:31.753Z,11.15
2019-04-07T08:00:06.941Z,11.26
2019-04-07T08:02:40.167Z,11.40
2019-04-07T08:05:13.592Z,11.54
2019-04-07T08:07:48.211Z,11.50
2019-04-07T08:10:18.759Z,11.53
2019-04-07T08:12:50.821Z,11.53
2019-04-07T08:15:25.494Z,11.72
2019-04-07T08:17:55.338Z,11.89
2019-04-07T08:20:27.469Z,12.04
2019-04-07T08:22:59.333Z,12.21
2019-04-07T08:25:31.188Z,12.24
2019-04-07T08:28:04.603Z,12.33
2019-04-07T08:30:43.938Z,12.42
2019-04-07T08:33:12.653Z,12.52
2019-04-07T08:35:44.217Z,12.64
2019-04-07T08:38:19.311Z,12.75
2019-04-07T08:40:49.691Z,12.83
2019-04-07T08:43:24.681Z,12.91
2019-04-07T08:45:57.964Z,13.03
2019-04-07T08:48:30.591Z,13.06
2019-04-07T08:51:02.143Z,13.23
2019-04-07T08:53:37.743Z,13.36
2019-04-07T08:56:12.994Z,13.50
2019-04-07T08:58:47.809Z,13.61
2019-04-07T09:01:20.370Z,13.61
2019-04-07T09:03:54.242Z,13.63
2019-04-07T09:06:28.481Z,13.61
2019-04-07T09:08:58.509Z,13.72
2019-04-07T09:11:30.409Z,13.92
2019-04-07T09:14:04.227Z,13.78
2019-04-07T09:16:40.490Z,13.85
2019-04-07T09:19:28.849Z,14.09
2019-04-07T09:22:04.614Z,14.24
2019-04-07T09:24:53.967Z,14.36
2019-04-07T09:27:28.061Z,14.44
2019-04-07T09:30:10.407Z,14.67
2019-04-07T09:33:03.436Z,14.80
2019-04-07T09:35:38.985Z,14.56
2019-04-07T09:38:29.539Z,14.80
2019-04-07T09:41:21.651Z,14.73
2019-04-07T09:43:55.123Z,14.98
2019-04-07T09:46:48.340Z,15.18
2019-04-07T09:49:28.029Z,15.24
2019-04-07T09:52:18.807Z,15.43
2019-04-07T09:54:54.422Z,15.54
2019-04-07T09:57:26.643Z,15.77
2019-04-07T10:00:17.067Z,15.77
2019-04-07T10:02:51.597Z,15.89
2019-04-07T10:05:25.403Z,16.15
2019-04-07T10:08:00.745Z,16.37
2019-04-07T10:10:41.478Z,16.59
2019-04-07T10:13:31.774Z,16.74
2019-04-07T10:16:08.950Z,16.86
2019-04-07T10:18:38.683Z,16.75
2019-04-07T10:21:10.018Z,16.57
2019-04-07T10:23:51.769Z,16.74
2019-04-07T10:26:26.930Z,16.93
2019-04-07T10:29:13.606Z,16.68
2019-04-07T10:31:50.884Z,16.54
2019-04-07T10:34:31.991Z,16.70
2019-04-07T10:37:06.772Z,16.71
2019-04-07T10:39:46.160Z,16.85
2019-04-07T10:42:20.094Z,16.92
2019-04-07T10:44:55.741Z,17.01
2019-04-07T10:47:32.363Z,17.32
2019-04-07T10:50:11.588Z,17.52
2019-04-07T10:52:56.569Z,17.53
2019-04-07T10:55:44.135Z,17.67
2019-04-07T10:58:17.308Z,17.61
2019-04-07T11:00:50.878Z,17.69
2019-04-07T11:03:41.542Z,17.85
2019-04-07T11:06:19.100Z,17.66
2019-04-07T11:08:53.484Z,17.38
2019-04-07T11:11:35.817Z,17.62
2019-04-07T11:14:11.455Z,17.77
2019-04-07T11:16:44.192Z,18.00
2019-04-07T11:19:33.355Z,18.26
2019-04-07T11:22:04.718Z,18.23
2019-04-07T11:24:36.977Z,18.35
2019-04-07T11:27:22.246Z,18.49
2019-04-07T11:30:10.271Z,18.65
2019-04-07T11:32:46.177Z,18.55
2019-04-07T11:35:19.282Z,18.36
2019-04-07T11:37:52.869Z,18.22
2019-04-07T11:40:41.497Z,18.34
2019-04-07T11:43:03.368Z,18.18
2019-04-07T11:45:39.065Z,18.15
2019-04-07T11:48:10.203Z,18.00
2019-04-07T11:51:02.098Z,18.10
2019-04-07T11:53:36.486Z,18.34
2019-04-07T11:56:13.267Z,18.73
2019-04-07T11:58:56.171Z,18.97
2019-04-07T12:01:30.309Z,19.23
2019-04-07T12:04:06.748Z,19.64
2019-04-07T12:06:40.022Z,19.87
2019-04-07T12:09:19.643Z,20.06
2019-04-07T12:12:03.734Z,20.25
2019-04-07T12:14:39.540Z,20.36
2019-04-07T12:17:13.789Z,20.59
2019-04-07T12:19:46.296Z,20.62
2019-04-07T12:22:21.702Z,20.84
2019-04-07T12:24:59.281Z,20.42
2019-04-07T12:27:30.308Z,20.49
2019-04-07T12:30:03.349Z,20.65
2019-04-07T12:32:42.253Z,20.45
2019-04-07T12:35:33.012Z,20.10
2019-04-07T12:38:12.450Z,20.05
2019-04-07T12:40:59.461Z,20.50
2019-04-07T12:43:36.322Z,20.34
2019-04-07T12:46:11.186Z,19.83
2019-04-07T12:48:45.122Z,20.33
2019-04-07T12:51:35.060Z,20.75
2019-04-07T12:54:17.846Z,20.96
2019-04-07T12:56:57.937Z,20.84
2019-04-07T12:59:38.980Z,20.61
2019-04-07T13:02:27.303Z,20.94
2019-04-07T13:05:19.815Z,21.12
2019-04-07T13:08:02.766Z,21.43
2019-04-07T13:10:42.911Z,21.59
2019-04-07T13:13:14.325Z,21.98
2019-04-07T13:16:04.457Z,21.91
2019-04-07T13:18:47.544Z,21.20
2019-04-07T13:21:26.856Z,20.55
2019-04-07T13:24:13.337Z,20.40
2019-04-07T13:26:47.495Z,20.91
2019-04-07T13:29:21.434Z,21.05
2019-04-07T13:31:58.382Z,21.10
2019-04-07T13:34:37.082Z,21.19
2019-04-07T13:37:17.276Z,21.18
2019-04-07T13:39:54.455Z,20.57
2019-04-07T13:42:30.770Z,20.72
2019-04-07T13:45:19.954Z,20.81
2019-04-07T13:48:16.399Z,20.35
2019-04-07T13:50:46.777Z,20.27
2019-04-07T13:53:27.861Z,20.19
2019-04-07T13:56:15.586Z,20.05
2019-04-07T13:58:50.936Z,19.94
2019-04-07T14:01:28.045Z,20.03
2019-04-07T14:04:12.084Z,19.99
2019-04-07T14:07:07.854Z,20.01
2019-04-07T14:09:44.145Z,19.77
2019-04-07T14:12:18.357Z,20.37
2019-04-07T14:14:55.965Z,21.10
2019-04-07T14:17:27.302Z,21.62
2019-04-07T14:20:14.924Z,21.72
2019-04-07T14:23:03.276Z,21.75
2019-04-07T14:25:43.468Z,21.81
2019-04-07T14:28:33.431Z,21.91
2019-04-07T14:31:26.133Z,21.95
2019-04-07T14:34:04.124Z,21.56
2019-04-07T14:36:54.624Z,21.03
2019-04-07T14:39:33.612Z,20.78
2019-04-07T14:42:08.558Z,20.54
2019-04-07T14:45:01.309Z,20.49
2019-04-07T14:47:36.031Z,20.36
2019-04-07T14:50:25.241Z,20.27
2019-04-07T14:53:05.513Z,20.44
2019-04-07T14:55:43.143Z,20.71
2019-04-07T14:58:33.437Z,21.09
2019-04-07T15:01:15.205Z,21.37
2019-04-07T15:03:44.436Z,21.50
2019-04-07T15:06:17.048Z,21.85
2019-04-07T15:08:52.747Z,21.26
2019-04-07T15:11:25.598Z,20.87
2019-04-07T15:14:01.937Z,20.50
2019-04-07T15:16:35.079Z,20.92
2019-04-07T15:19:10.426Z,21.34
2019-04-07T15:21:41.710Z,21.43
2019-04-07T15:24:13.609Z,21.45
2019-04-07T15:26:49.500Z,21.69
2019-04-07T15:29:20.953Z,21.71
2019-04-07T15:31:52.883Z,21.71
2019-04-07T15:34:25.243Z,21.33
2019-04-07T15:36:56.884Z,21.19
2019-04-07T15:39:30.303Z,21.23
2019-04-07T15:42:03.208Z,21.59
2019-04-07T15:44:39.084Z,22.02
2019-04-07T15:47:09.250Z,22.34
2019-04-07T15:49:40.961Z,22.29
2019-04-07T15:52:14.210Z,22.31
2019-04-07T15:54:47.853Z,22.19
2019-04-07T15:57:21.677Z,22.29
2019-04-07T15:59:54.356Z,22.40
2019-04-07T16:02:27.516Z,22.16
2019-04-07T16:05:03.626Z,21.99
2019-04-07T16:07:35.289Z,22.37
2019-04-07T16:10:22.862Z,22.42
2019-04-07T16:12:58.130Z,22.51
2019-04-07T16:15:29.657Z,22.50
2019-04-07T16:18:03.425Z,22.63
2019-04-07T16:20:40.218Z,22.67
2019-04-07T16:23:10.534Z,22.56
2019-04-07T16:25:43.161Z,22.63
2019-04-07T16:28:15.955Z,22.89
2019-04-07T16:30:51.989Z,22.51
2019-04-07T16:33:23.496Z,21.96
2019-04-07T16:35:56.276Z,21.15
2019-04-07T16:38:30.090Z,20.98
2019-04-07T16:41:04.720Z,20.74
2019-04-07T16:43:37.788Z,20.64
2019-04-07T16:46:13.317Z,20.62
2019-04-07T16:48:49.867Z,20.65
2019-04-07T16:51:21.645Z,20.71
2019-04-07T16:53:54.220Z,20.77
2019-04-07T16:56:26.607Z,20.55
2019-04-07T16:58:58.877Z,20.41
2019-04-07T17:01:32.048Z,20.18
2019-04-07T17:04:03.849Z,20.01
2019-04-07T17:06:39.050Z,20.02
2019-04-07T17:09:22.423Z,19.94
2019-04-07T17:11:58.438Z,19.85
2019-04-07T17:14:33.682Z,19.67
2019-04-07T17:17:05.869Z,19.41
2019-04-07T17:19:38.367Z,19.27
2019-04-07T17:22:14.014Z,19.13
2019-04-07T17:24:51.898Z,18.95
2019-04-07T17:27:25.030Z,18.60
2019-04-07T17:29:59.040Z,18.29
2019-04-07T17:32:33.113Z,17.97
2019-04-07T17:35:07.699Z,17.80
2019-04-07T17:37:41.364Z,17.60
2019-04-07T17:40:15.782Z,17.63
2019-04-07T17:42:52.829Z,17.46
2019-04-07T17:45:33.458Z,17.48
2019-04-07T17:48:07.742Z,17.34
2019-04-07T17:50:56.450Z,17.22
2019-04-07T17:53:37.955Z,17.20
2019-04-07T17:56:20.348Z,17.14
2019-04-07T17:58:52.318Z,17.00
2019-04-07T18:01:30.379Z,16.89
2019-04-07T18:04:14.001Z,16.79
2019-04-07T18:07:03.604Z,16.73
2019-04-07T18:09:44.928Z,16.67
2019-04-07T18:12:20.071Z,16.60
2019-04-07T18:15:17.894Z,16.51
2019-04-07T18:18:07.804Z,16.41
2019-04-07T18:20:48.601Z,16.18
2019-04-07T18:23:21.431Z,16.18
2019-04-07T18:25:53.222Z,16.10
2019-04-07T18:28:31.349Z,16.00
2019-04-07T18:31:10.000Z,16.03
2019-04-07T18:34:02.508Z,15.94
2019-04-07T18:36:45.960Z,15.92
2019-04-07T18:39:33.851Z,15.89
2019-04-07T18:42:17.737Z,15.74
2019-04-07T18:45:12.254Z,15.68
2019-04-07T18:47:53.868Z,15.59
2019-04-07T18:50:43.268Z,15.55
2019-04-07T18:53:17.811Z,15.52
2019-04-07T18:56:03.478Z,15.53
2019-04-07T18:58:50.880Z,15.45
2019-04-07T19:01:39.453Z,15.40
2019-04-07T19:04:13.034Z,15.41
2019-04-07T19:06:58.576Z,15.37
2019-04-07T19:09:37.940Z,15.22
2019-04-07T19:12:16.776Z,15.18
2019-04-07T19:15:07.017Z,15.08
2019-04-07T19:17:48.853Z,14.93
2019-04-07T19:20:26.297Z,14.82
2019-04-07T19:23:02.416Z,14.75
2019-04-07T19:25:42.635Z,14.67
2019-04-07T19:28:22.934Z,14.63
2019-04-07T19:31:17.468Z,14.54
2019-04-07T19:33:59.994Z,14.44
2019-04-07T19:36:49.868Z,14.33
2019-04-07T19:39:23.702Z,14.27
2019-04-07T19:42:01.322Z,14.21
2019-04-07T19:44:38.963Z,14.22
2019-04-07T19:47:12.110Z,14.23
2019-04-07T19:50:01.462Z,14.18
2019-04-07T19:52:43.668Z,14.10
2019-04-07T19:55:29.124Z,14.17
2019-04-07T19:58:19.997Z,14.19
2019-04-07T20:01:09.271Z,14.19
2019-04-07T20:04:05.325Z,14.20
2019-04-07T20:06:41.907Z,14.23
2019-04-07T20:09:39.383Z,14.17
2019-04-07T20:12:29.978Z,14.13
2019-04-07T20:15:20.008Z,14.09
2019-04-07T20:17:59.100Z,14.13
2019-04-07T20:20:43.508Z,14.14
2019-04-07T20:23:18.348Z,14.13
2019-04-07T20:25:59.879Z,14.03
2019-04-07T20:28:41.042Z,13.94
2019-04-07T20:31:23.954Z,13.87
2019-04-07T20:34:05.590Z,13.81
2019-04-07T20:36:38.011Z,13.80
2019-04-07T20:39:32.569Z,13.79
2019-04-07T20:42:03.113Z,13.77
2019-04-07T20:45:01.846Z,13.70
2019-04-07T20:47:40.431Z,13.61
2019-04-07T20:50:36.385Z,13.50
2019-04-07T20:53:15.409Z,13.38
2019-04-07T20:55:45.243Z,13.33
2019-04-07T20:58:44.743Z,13.24
2019-04-07T21:01:20.910Z,13.18
2019-04-07T21:03:53.809Z,13.03
2019-04-07T21:06:44.114Z,13.04
2019-04-07T21:09:20.292Z,13.02
2019-04-07T21:11:58.896Z,12.99
2019-04-07T21:14:39.172Z,12.97
2019-04-07T21:17:30.402Z,12.94
2019-04-07T21:20:22.634Z,12.90
2019-04-07T21:23:16.147Z,12.93
2019-04-07T21:25:56.983Z,12.89
2019-04-07T21:28:42.740Z,12.83
2019-04-07T21:31:18.528Z,12.78
2019-04-07T21:33:55.486Z,12.67
2019-04-07T21:36:30.113Z,12.60
2019-04-07T21:39:09.834Z,12.53
2019-04-07T21:41:48.676Z,12.49
2019-04-07T21:44:22.132Z,12.45
2019-04-07T21:47:09.982Z,12.40
2019-04-07T21:50:05.464Z,12.33
2019-04-07T21:52:38.828Z,12.29
2019-04-07T21:55:28.861Z,12.24
2019-04-07T21:58:25.055Z,12.21
2019-04-07T22:01:11.102Z,12.16
2019-04-07T22:03:50.111Z,12.08
2019-04-07T22:06:40.920Z,11.92
2019-04-07T22:09:18.145Z,11.76
2019-04-07T22:11:50.049Z,11.68
2019-04-07T22:14:21.391Z,11.63
2019-04-07T22:16:52.679Z,11.58
2019-04-07T22:19:25.242Z,11.55
2019-04-07T22:21:56.959Z,11.53
2019-04-07T22:24:31.274Z,11.51
2019-04-07T22:27:02.281Z,11.46
2019-04-07T22:29:34.941Z,11.41
2019-04-07T22:32:07.486Z,11.35
2019-04-07T22:34:39.131Z,11.35
2019-04-07T22:37:10.477Z,11.30
2019-04-07T22:39:41.945Z,11.23
2019-04-07T22:42:15.875Z,11.16
2019-04-07T22:44:46.234Z,11.12
2019-04-07T22:47:19.722Z,11.11
2019-04-07T22:49:50.697Z,11.00
2019-04-07T22:52:22.545Z,10.92
2019-04-07T22:54:53.898Z,10.88
2019-04-07T22:57:25.968Z,10.83
2019-04-07T22:59:57.396Z,10.83
2019-04-07T23:02:29.713Z,10.86
2019-04-07T23:05:01.349Z,10.86
2019-04-07T23:07:32.742Z,10.86
2019-04-07T23:10:04.762Z,10.85
2019-04-07T23:12:36.222Z,10.84
2019-04-07T23:15:09.158Z,10.85
2019-04-07T23:17:40.561Z,10.83
2019-04-07T23:20:15.079Z,10.87
2019-04-07T23:22:46.683Z,10.89
2019-04-07T23:25:18.129Z,10.89
2019-04-07T23:27:50.006Z,10.86
2019-04-07T23:30:27.799Z,10.90
2019-04-07T23:32:59.158Z,10.94
2019-04-07T23:35:31.304Z,10.90
2019-04-07T23:38:03.621Z,10.89
2019-04-07T23:40:35.169Z,10.90
2019-04-07T23:43:06.470Z,10.90
2019-04-07T23:45:37.856Z,10.91
2019-04-07T23:48:09.150Z,10.92
2019-04-07T23:50:41.153Z,10.95
2019-04-07T23:54:07.548Z,10.95
2019-04-07T23:56:43.490Z,10.94
2019-04-07T23:59:15.375Z,10.90
